Terminal Aerodrome Forecast
Issued by NWS Rapid City, SD

Home | Current Version | Previous Version | Text Only | Print | Product List | Glossary Off
Versions: 1 2 3 4 5 6 7 8 9 10 11 12 13 14 15 16 17

000
FTUS43 KUNR 192320
TAFRAP
TAF
KRAP 192320Z 2000/2024 01014KT 1SM -SN VV012
     FM200400 35010KT 3SM -SN OVC020
     FM201000 34010KT P6SM OVC025
     FM201400 33007KT P6SM OVC040
     FM201700 34008KT P6SM SCT100=

USA.gov is the U.S. government's official web portal to all federal, state and local government web resources and services.